Time;durP1;ratioP1;P1;durP2;ratioP2;P2;SDS_P1;SDS_P2;PMS_P1;PMS_P2;Temp;Humidity;BMP_temperature;BMP_pressure;BME280_temperature;BME280_humidity;BME280_pressure;Samples;Min_cycle;Max_cycle;Signal;HPM_P1;HPM_P2
2021/06/13 00:00:00;;;;;;;7.22;5.85;;;;;;;15.70;72.80;99694.63;5094198;28;20052;-81
2021/06/13 00:02:26;;;;;;;9.02;5.30;;;;;;;15.52;73.67;99689.72;5094282;28;20442;-80
2021/06/13 00:04:53;;;;;;;7.80;5.75;;;;;;;15.29;74.27;99676.34;5093730;28;20069;-81
2021/06/13 00:07:19;;;;;;;6.50;5.38;;;;;;;15.47;73.60;99686.75;5094359;28;20048;-81
2021/06/13 00:09:45;;;;;;;8.93;5.40;;;;;;;15.41;74.04;99685.69;5088413;28;20374;-81
2021/06/13 00:12:12;;;;;;;11.05;5.80;;;;;;;15.24;74.75;99690.66;5078669;28;20040;-80
2021/06/13 00:14:41;;;;;;;8.27;6.05;;;;;;;15.27;74.89;99692.16;5093469;28;20044;-81
2021/06/13 00:17:07;;;;;;;8.00;5.97;;;;;;;15.38;74.42;99700.63;5093405;28;20134;-82
2021/06/13 00:19:33;;;;;;;8.52;6.22;;;;;;;15.12;74.95;99682.16;5094161;28;20051;-81
2021/06/13 00:22:00;;;;;;;8.25;5.60;;;;;;;15.04;75.83;99698.75;5093856;28;20052;-82
2021/06/13 00:24:26;;;;;;;12.20;5.25;;;;;;;15.08;75.56;99696.47;5093438;28;20043;-81
2021/06/13 00:26:52;;;;;;;8.10;5.25;;;;;;;15.02;75.75;99706.31;5093738;28;20545;-81
2021/06/13 00:29:18;;;;;;;8.15;5.38;;;;;;;15.04;75.79;99715.19;5086123;28;20071;-81
2021/06/13 00:31:46;;;;;;;6.72;5.30;;;;;;;15.07;75.43;99716.66;5073425;28;20052;-81
2021/06/13 00:34:14;;;;;;;8.60;5.93;;;;;;;15.11;74.83;99710.59;5072908;28;20083;-81
2021/06/13 00:36:40;;;;;;;6.82;5.10;;;;;;;15.01;75.17;99712.84;5073433;28;20052;-80
2021/06/13 00:39:06;;;;;;;9.07;5.93;;;;;;;15.02;75.09;99706.31;5072914;28;20488;-80
2021/06/13 00:41:33;;;;;;;9.13;5.38;;;;;;;14.93;75.75;99721.22;5093199;28;20076;-80
2021/06/13 00:43:59;;;;;;;6.70;5.00;;;;;;;14.79;75.94;99710.16;5092910;28;20496;-80
2021/06/13 00:46:25;;;;;;;7.07;5.45;;;;;;;14.77;76.17;99714.13;5093243;28;20048;-81
2021/06/13 00:48:53;;;;;;;7.70;5.85;;;;;;;14.54;76.65;99717.09;5093477;28;20044;-81
2021/06/13 00:51:19;;;;;;;10.30;6.05;;;;;;;14.46;77.35;99718.91;5082444;28;20044;-82
2021/06/13 00:53:46;;;;;;;8.80;5.80;;;;;;;14.28;77.73;99718.53;5073179;28;20044;-81
2021/06/13 00:56:13;;;;;;;7.68;6.05;;;;;;;14.46;77.37;99712.59;5093122;28;20488;-80
2021/06/13 00:58:40;;;;;;;7.65;5.57;;;;;;;14.40;77.41;99711.50;5093599;28;20052;-80
2021/06/13 01:01:06;;;;;;;7.78;5.90;;;;;;;14.32;78.02;99703.44;5076501;28;20052;-80
2021/06/13 01:03:33;;;;;;;8.27;5.93;;;;;;;14.44;77.65;99718.28;5093504;28;20048;-81
2021/06/13 01:06:00;;;;;;;8.45;5.55;;;;;;;14.52;77.15;99704.44;5093049;28;20106;-81
2021/06/13 01:08:38;;;;;;;7.32;5.75;;;;;;;14.49;77.18;99704.00;5093071;28;20051;-80
2021/06/13 01:11:19;;;;;;;9.05;5.95;;;;;;;14.51;77.00;99719.19;5093432;28;20106;-81
2021/06/13 01:13:54;;;;;;;9.98;6.28;;;;;;;14.42;77.16;99711.28;5089126;28;20044;-80
2021/06/13 01:16:29;;;;;;;9.77;6.60;;;;;;;14.36;77.71;99712.09;5092781;28;20059;-80
2021/06/13 01:19:00;;;;;;;8.77;6.10;;;;;;;14.25;77.76;99718.94;5093681;28;20109;-82
2021/06/13 01:21:33;;;;;;;11.30;6.65;;;;;;;14.35;77.19;99705.78;5093305;28;20462;-81
2021/06/13 01:24:17;;;;;;;11.43;6.40;;;;;;;14.23;77.34;99699.97;5093407;28;20044;-80
2021/06/13 01:27:17;;;;;;;11.77;7.22;;;;;;;14.26;77.48;99723.38;5092939;28;20511;-80
2021/06/13 01:29:46;;;;;;;10.40;6.68;;;;;;;14.08;78.53;99721.91;5087775;28;20048;-81
2021/06/13 01:32:17;;;;;;;11.73;6.97;;;;;;;13.98;78.81;99716.78;5096700;28;20112;-81
2021/06/13 01:34:48;;;;;;;10.13;7.10;;;;;;;13.96;78.43;99712.53;5097010;28;20048;-80
2021/06/13 01:37:18;;;;;;;10.10;7.40;;;;;;;13.88;78.67;99718.97;5097102;28;20090;-81
2021/06/13 01:39:48;;;;;;;11.30;6.50;;;;;;;13.73;78.89;99712.69;5096748;28;20637;-81
2021/06/13 01:42:19;;;;;;;7.63;6.18;;;;;;;13.82;79.08;99719.75;5096608;28;20131;-80
2021/06/13 01:44:49;;;;;;;8.95;6.88;;;;;;;13.88;78.55;99720.84;5091414;28;20037;-80
2021/06/13 01:47:16;;;;;;;10.35;7.03;;;;;;;13.89;78.32;99717.06;5084712;28;20048;-80
2021/06/13 01:49:43;;;;;;;12.60;7.78;;;;;;;13.79;78.53;99718.25;5096585;28;20510;-80
2021/06/13 01:52:13;;;;;;;13.90;7.68;;;;;;;13.92;78.16;99728.47;5096230;28;20051;-80
2021/06/13 01:54:42;;;;;;;11.13;6.97;;;;;;;13.75;78.52;99719.66;5096242;28;20075;-81
2021/06/13 01:57:09;;;;;;;9.55;6.72;;;;;;;13.63;78.29;99729.38;5096706;28;20052;-80
2021/06/13 01:59:41;;;;;;;11.70;7.20;;;;;;;13.47;79.37;99714.03;5096788;28;20097;-81
2021/06/13 02:02:11;;;;;;;12.68;7.35;;;;;;;13.59;79.13;99730.81;5096678;28;20155;-81
2021/06/13 02:04:40;;;;;;;10.27;6.70;;;;;;;13.46;79.88;99726.03;5096462;28;20044;-81
2021/06/13 02:07:08;;;;;;;12.00;8.07;;;;;;;13.49;81.08;99731.09;5096826;28;20044;-81
2021/06/13 02:09:35;;;;;;;11.45;6.90;;;;;;;13.47;81.28;99735.91;5096382;28;20101;-80
2021/06/13 02:12:03;;;;;;;9.23;6.72;;;;;;;13.50;79.83;99730.06;5095983;28;20047;-80
2021/06/13 02:14:30;;;;;;;9.02;6.60;;;;;;;13.33;79.36;99734.84;5095813;28;20051;-80
2021/06/13 02:16:59;;;;;;;8.75;6.18;;;;;;;13.50;78.93;99734.69;5096367;28;20048;-80
2021/06/13 02:19:29;;;;;;;8.13;5.95;;;;;;;13.21;79.27;99720.81;5096134;28;20052;-81
2021/06/13 02:21:57;;;;;;;;;;;;;;;13.16;79.69;99733.31;5096899;28;20051;-80
2021/06/13 02:24:24;;;;;;;8.38;6.13;;;;;;;13.05;79.82;99730.06;5094416;28;19931;-80
2021/06/13 02:26:52;;;;;;;7.40;6.22;;;;;;;13.05;80.05;99737.38;5079402;28;20047;-80
2021/06/13 02:29:19;;;;;;;8.75;6.93;;;;;;;13.03;80.00;99728.53;5095940;28;20076;-80
2021/06/13 02:31:48;;;;;;;9.00;5.97;;;;;;;12.93;80.31;99735.13;5095998;28;20089;-81
2021/06/13 02:34:17;;;;;;;10.50;6.22;;;;;;;12.81;80.59;99741.19;5095694;28;20521;-80
2021/06/13 02:36:47;;;;;;;14.20;6.70;;;;;;;12.77;80.58;99735.28;5096006;28;20048;-80
2021/06/13 02:39:13;;;;;;;10.38;5.95;;;;;;;12.96;80.31;99746.69;5095990;28;20055;-80
2021/06/13 02:41:39;;;;;;;7.35;6.22;;;;;;;13.07;80.01;99748.97;5086792;28;20048;-80
2021/06/13 02:44:07;;;;;;;12.75;7.60;;;;;;;12.87;80.75;99737.72;5075682;28;20055;-80
2021/06/13 02:46:33;;;;;;;11.90;6.35;;;;;;;12.98;80.24;99756.38;5075226;28;20057;-80
2021/06/13 02:48:59;;;;;;;9.32;6.85;;;;;;;12.91;79.85;99745.34;5075613;28;20098;-80
2021/06/13 02:51:33;;;;;;;12.48;6.88;;;;;;;13.00;79.56;99761.66;5088000;28;20048;-80
2021/06/13 02:54:07;;;;;;;11.07;6.40;;;;;;;12.75;79.93;99753.69;5095503;28;20044;-80
2021/06/13 02:56:39;;;;;;;10.20;6.18;;;;;;;12.57;80.57;99763.06;5095567;28;20056;-80
2021/06/13 02:59:15;;;;;;;8.15;6.43;;;;;;;12.54;80.52;99740.75;5083325;28;20048;-80
2021/06/13 03:01:45;;;;;;;11.00;6.15;;;;;;;12.53;81.05;99752.72;5075614;28;20044;-80
2021/06/13 03:04:15;;;;;;;9.98;6.45;;;;;;;12.51;80.36;99743.84;5075193;28;20049;-81
2021/06/13 03:06:42;;;;;;;;;;;;;;;12.49;80.27;99775.91;5075556;28;20052;-80
2021/06/13 03:09:10;;;;;;;10.43;6.45;;;;;;;12.24;81.37;99770.66;5075142;28;19946;-79
2021/06/13 03:11:37;;;;;;;10.63;6.60;;;;;;;12.13;81.16;99757.44;5075161;28;20048;-80
2021/06/13 03:14:06;;;;;;;14.98;6.30;;;;;;;12.45;80.95;99785.50;5074931;28;20059;-80
2021/06/13 03:16:33;;;;;;;9.90;6.65;;;;;;;12.23;81.35;99777.13;5074850;28;20439;-80
2021/06/13 03:19:00;;;;;;;9.98;7.40;;;;;;;12.49;80.64;99784.09;5075102;28;20052;-80
2021/06/13 03:21:28;;;;;;;9.55;6.57;;;;;;;12.49;80.72;99786.84;5086311;28;20101;-80
2021/06/13 03:23:56;;;;;;;9.52;7.20;;;;;;;12.45;81.25;99791.81;5095359;28;20063;-80
2021/06/13 03:26:25;;;;;;;9.60;6.18;;;;;;;12.47;80.30;99780.72;5090812;28;20054;-80
2021/06/13 03:28:54;;;;;;;8.50;6.38;;;;;;;12.43;80.73;99784.84;5074815;28;20056;-80
2021/06/13 03:31:22;;;;;;;10.35;6.43;;;;;;;12.18;80.94;99780.41;5090114;28;20044;-80
2021/06/13 03:33:50;;;;;;;8.00;6.07;;;;;;;12.26;81.32;99797.75;5094718;28;20044;-80
2021/06/13 03:36:18;;;;;;;8.77;6.47;;;;;;;12.35;80.83;99794.75;5094786;28;20075;-81
2021/06/13 03:38:47;;;;;;;11.20;6.22;;;;;;;12.23;80.65;99795.38;5081878;28;20124;-80
2021/06/13 03:41:16;;;;;;;10.52;6.05;;;;;;;12.29;80.65;99798.22;5074999;28;20048;-81
2021/06/13 03:43:44;;;;;;;9.05;6.55;;;;;;;12.09;81.28;99786.06;5082489;28;20506;-80
2021/06/13 03:46:12;;;;;;;9.10;6.20;;;;;;;12.13;81.34;99793.69;5094515;28;20047;-80
2021/06/13 03:48:40;;;;;;;13.27;6.80;;;;;;;12.18;81.25;99795.91;5094292;28;20063;-80
2021/06/13 03:51:08;;;;;;;7.85;5.95;;;;;;;12.13;81.88;99801.88;5094000;28;20090;-80
2021/06/13 03:53:46;;;;;;;11.45;6.07;;;;;;;12.01;81.45;99793.28;5089249;28;20041;-80
2021/06/13 03:56:14;;;;;;;11.75;5.65;;;;;;;12.08;81.55;99809.75;5073763;28;20489;-80
2021/06/13 03:58:44;;;;;;;8.70;6.53;;;;;;;11.99;81.63;99795.31;5074217;28;20122;-80
2021/06/13 04:01:12;;;;;;;10.10;5.57;;;;;;;12.08;81.76;99808.91;5079021;28;20068;-80
2021/06/13 04:03:41;;;;;;;9.02;6.00;;;;;;;12.11;82.64;99805.84;5091106;28;20098;-80
2021/06/13 04:06:08;;;;;;;9.95;7.03;;;;;;;12.21;82.19;99790.94;5094123;28;20048;-80
2021/06/13 04:08:38;;;;;;;8.07;5.68;;;;;;;12.21;81.41;99795.56;5094286;28;20118;-80
2021/06/13 04:14:29;;;;;;;10.23;5.90;;;;;;;12.44;81.13;99802.91;5102278;28;20407;-80
2021/06/13 04:16:56;;;;;;;11.75;5.93;;;;;;;12.29;81.39;99806.38;5113476;28;20055;-80
2021/06/13 04:19:23;;;;;;;10.23;5.82;;;;;;;12.43;81.36;99820.28;5113260;28;20047;-79
2021/06/13 04:21:50;;;;;;;14.15;5.72;;;;;;;12.43;81.57;99823.84;5094706;28;20469;-79
2021/06/13 04:24:18;;;;;;;11.15;6.25;;;;;;;12.52;81.81;99816.47;5093419;28;20048;-80
2021/06/13 04:26:45;;;;;;;10.00;6.47;;;;;;;12.34;82.12;99814.88;5080331;28;20451;-80
2021/06/13 04:29:13;;;;;;;17.98;5.93;;;;;;;12.48;82.03;99809.66;5091319;28;20462;-80
2021/06/13 04:31:41;;;;;;;10.73;6.93;;;;;;;12.72;81.88;99827.72;5092870;28;20101;-80
2021/06/13 04:34:08;;;;;;;9.50;6.95;;;;;;;12.75;82.11;99824.63;5093726;28;20097;-80
2021/06/13 04:36:35;;;;;;;9.27;6.70;;;;;;;12.83;82.10;99837.38;5093066;28;20104;-80
2021/06/13 04:39:02;;;;;;;8.90;6.32;;;;;;;12.85;81.74;99818.94;5104822;28;20048;-80
2021/06/13 04:41:33;;;;;;;9.85;6.25;;;;;;;12.85;81.98;99829.84;5093688;28;20388;-80
2021/06/13 04:44:00;;;;;;;10.95;6.63;;;;;;;12.80;81.73;99818.66;5093022;28;20048;-79
2021/06/13 04:46:28;;;;;;;11.90;7.00;;;;;;;12.94;81.58;99839.66;5093288;28;20047;-80
2021/06/13 04:48:56;;;;;;;11.52;7.00;;;;;;;13.14;81.29;99845.44;5091416;28;20052;-79
2021/06/13 04:51:26;;;;;;;10.60;6.65;;;;;;;13.21;80.52;99842.84;5073653;28;20385;-79
2021/06/13 04:54:33;;;;;;;14.60;6.82;;;;;;;13.32;81.10;99844.25;5089218;28;20393;-80
2021/06/13 04:57:20;;;;;;;10.13;5.97;;;;;;;13.62;79.75;99834.22;5072780;28;20554;-80
2021/06/13 04:59:46;;;;;;;16.65;6.80;;;;;;;14.41;76.94;99847.22;5083190;28;20044;-80
2021/06/13 05:02:14;;;;;;;8.25;6.28;;;;;;;15.10;74.41;99844.97;5092562;28;20044;-80
2021/06/13 05:04:43;;;;;;;7.35;6.00;;;;;;;15.72;72.49;99832.34;5095884;28;20052;-80
2021/06/13 05:07:09;;;;;;;7.47;6.05;;;;;;;16.15;70.90;99832.13;5097043;28;20052;-80
2021/06/13 05:09:37;;;;;;;9.15;5.72;;;;;;;16.50;69.27;99829.31;5096660;28;20093;-80
2021/06/13 05:12:05;;;;;;;8.80;5.88;;;;;;;17.11;67.84;99835.75;5097516;28;20048;-80
2021/06/13 05:14:32;;;;;;;10.32;5.82;;;;;;;17.28;66.30;99839.78;5096751;28;20056;-80
2021/06/13 05:16:58;;;;;;;9.10;5.78;;;;;;;17.51;65.81;99831.06;5096775;28;20052;-80
2021/06/13 05:19:25;;;;;;;7.75;5.55;;;;;;;17.75;64.55;99836.06;5096629;28;20052;-80
2021/06/13 05:21:53;;;;;;;12.13;6.30;;;;;;;18.08;63.39;99833.28;5097002;28;20457;-80
2021/06/13 05:24:20;;;;;;;7.60;5.78;;;;;;;18.12;63.17;99830.91;5097105;28;20040;-80
2021/06/13 05:26:47;;;;;;;9.63;6.18;;;;;;;18.58;61.84;99838.94;5075951;28;20056;-80
2021/06/13 05:29:14;;;;;;;11.75;6.03;;;;;;;18.51;61.70;99838.13;5083878;28;20063;-80
2021/06/13 05:31:41;;;;;;;12.10;5.80;;;;;;;18.50;61.67;99852.97;5096724;28;20055;-80
2021/06/13 05:34:07;;;;;;;8.05;5.50;;;;;;;18.50;61.61;99841.97;5096678;28;20052;-80
2021/06/13 05:36:34;;;;;;;10.35;5.63;;;;;;;18.72;61.25;99861.72;5096330;28;20044;-80
2021/06/13 05:39:03;;;;;;;8.70;5.95;;;;;;;18.82;60.74;99861.25;5096609;28;20047;-80
2021/06/13 05:41:30;;;;;;;9.90;5.72;;;;;;;18.77;59.73;99849.19;5096233;28;20449;-80
2021/06/13 05:44:00;;;;;;;7.40;5.07;;;;;;;18.79;59.54;99853.44;5097065;28;20105;-80
2021/06/13 05:46:26;;;;;;;;;;;;;;;18.84;59.87;99869.28;5096211;28;20052;-80
2021/06/13 05:48:53;;;;;;;10.77;5.68;;;;;;;19.02;59.80;99872.16;5096410;28;19954;-80
2021/06/13 05:51:20;;;;;;;10.65;5.55;;;;;;;19.33;58.64;99870.44;5095380;28;20044;-80
2021/06/13 05:53:47;;;;;;;11.27;5.22;;;;;;;19.59;57.56;99871.25;5096326;28;20048;-79
2021/06/13 05:56:15;;;;;;;7.15;4.82;;;;;;;19.52;57.08;99879.59;5086040;28;20101;-79
2021/06/13 05:58:42;;;;;;;6.40;4.70;;;;;;;19.28;58.11;99884.03;5096185;28;20048;-79
2021/06/13 06:01:08;;;;;;;7.38;4.75;;;;;;;19.48;57.42;99859.06;5090085;28;20451;-80
2021/06/13 06:03:35;;;;;;;8.15;4.85;;;;;;;19.27;58.47;99863.06;5093754;28;20576;-79
2021/06/13 06:06:02;;;;;;;11.98;4.70;;;;;;;19.57;57.72;99859.59;5093162;28;20048;-79
2021/06/13 06:08:29;;;;;;;8.93;4.30;;;;;;;19.73;57.58;99875.56;5095487;28;20050;-80
2021/06/13 06:10:56;;;;;;;10.32;5.03;;;;;;;19.48;57.29;99883.88;5085423;28;20053;-79
2021/06/13 06:13:24;;;;;;;7.03;4.82;;;;;;;19.97;56.87;99873.84;5092850;28;20415;-80
2021/06/13 06:15:51;;;;;;;6.38;4.47;;;;;;;19.89;56.40;99879.69;5093291;28;20055;-81
2021/06/13 06:18:18;;;;;;;7.30;4.50;;;;;;;19.99;55.71;99884.66;5079809;28;20043;-79
2021/06/13 06:20:45;;;;;;;6.47;3.75;;;;;;;20.00;54.62;99874.47;5092945;28;20059;-79
2021/06/13 06:23:12;;;;;;;5.78;3.30;;;;;;;20.19;53.04;99869.78;5092138;28;20040;-79
2021/06/13 06:25:39;;;;;;;6.07;3.13;;;;;;;19.72;53.30;99886.81;5092974;28;20051;-79
2021/06/13 06:28:05;;;;;;;6.85;3.35;;;;;;;19.86;52.89;99880.13;5093981;28;20052;-80
2021/06/13 06:30:34;;;;;;;8.88;3.20;;;;;;;20.34;52.62;99897.88;5094330;28;20059;-80
2021/06/13 06:33:01;;;;;;;12.20;4.97;;;;;;;20.69;50.46;99892.53;5095486;28;20044;-80
2021/06/13 06:35:28;;;;;;;8.85;3.67;;;;;;;20.89;50.11;99905.22;5075467;28;20056;-80
2021/06/13 06:37:55;;;;;;;12.43;4.00;;;;;;;20.72;50.16;99901.44;5075274;28;20102;-81
2021/06/13 06:40:28;;;;;;;6.53;3.58;;;;;;;20.23;51.71;99904.13;5075030;28;20053;-86
2021/06/13 06:42:55;;;;;;;7.60;3.72;;;;;;;20.36;51.35;99901.22;5086121;28;20446;-81
2021/06/13 06:45:22;;;;;;;10.18;3.70;;;;;;;20.44;51.33;99905.59;5094599;28;20044;-80
2021/06/13 06:47:50;;;;;;;6.82;3.40;;;;;;;20.47;52.17;99907.88;5095062;28;20384;-80
2021/06/13 06:50:18;;;;;;;4.25;3.08;;;;;;;20.88;50.70;99916.50;5094947;28;20569;-82
2021/06/13 06:52:46;;;;;;;10.52;3.33;;;;;;;21.01;50.81;99913.56;5094996;28;20048;-80
2021/06/13 06:55:15;;;;;;;5.75;2.95;;;;;;;21.01;49.63;99911.63;5094825;28;20101;-80
2021/06/13 06:57:44;;;;;;;11.77;3.05;;;;;;;21.11;48.82;99919.34;5095270;28;20051;-80
2021/06/13 07:00:12;;;;;;;7.50;3.25;;;;;;;21.58;48.74;99915.88;5094964;28;20048;-80
2021/06/13 07:02:39;;;;;;;6.90;3.13;;;;;;;21.52;48.68;99917.66;5094339;28;20208;-80
2021/06/13 07:05:08;;;;;;;9.82;2.90;;;;;;;21.47;48.46;99920.28;5094731;28;20047;-80
2021/06/13 07:07:35;;;;;;;9.07;2.63;;;;;;;21.48;48.10;99921.97;5081106;28;20484;-80
2021/06/13 07:10:03;;;;;;;5.72;2.67;;;;;;;21.66;47.65;99915.50;5074427;28;20329;-80
2021/06/13 07:12:30;;;;;;;5.70;2.78;;;;;;;21.91;46.98;99926.34;5094202;28;20094;-82
2021/06/13 07:14:57;;;;;;;8.57;2.80;;;;;;;21.89;47.51;99931.28;5094282;28;20408;-80
2021/06/13 07:17:23;;;;;;;6.57;2.67;;;;;;;21.96;46.37;99930.31;5088640;28;20070;-80
2021/06/13 07:19:50;;;;;;;7.05;2.63;;;;;;;21.88;44.62;99917.69;5075642;28;20045;-81
2021/06/13 07:22:18;;;;;;;6.90;2.55;;;;;;;21.99;45.90;99924.28;5094650;28;20561;-81
2021/06/13 07:24:45;;;;;;;8.05;2.75;;;;;;;21.53;46.48;99935.13;5094503;28;20135;-80
2021/06/13 07:27:12;;;;;;;8.93;2.20;;;;;;;21.60;45.09;99935.00;5093802;28;20109;-78
2021/06/13 07:29:39;;;;;;;7.28;2.03;;;;;;;21.80;44.94;99931.88;5094748;28;20699;-80
2021/06/13 07:32:07;;;;;;;5.28;2.42;;;;;;;21.58;45.50;99931.63;5094628;28;20052;-81
2021/06/13 07:34:36;;;;;;;4.18;1.92;;;;;;;21.55;46.38;99931.00;5093837;28;20121;-79
2021/06/13 07:37:05;;;;;;;5.03;2.33;;;;;;;21.99;44.06;99938.13;5094422;28;20052;-80
2021/06/13 07:39:33;;;;;;;6.47;2.15;;;;;;;21.84;45.08;99942.22;5094413;28;20048;-79
2021/06/13 07:42:00;;;;;;;5.13;1.90;;;;;;;21.93;44.90;99928.88;5074050;28;20473;-79
2021/06/13 07:44:27;;;;;;;8.95;2.50;;;;;;;22.08;44.20;99945.00;5083207;28;20052;-80
2021/06/13 07:46:54;;;;;;;7.97;3.17;;;;;;;22.14;42.98;99944.00;5094381;28;20097;-80
2021/06/13 07:49:21;;;;;;;4.05;2.05;;;;;;;22.43;43.67;99950.53;5093830;28;20450;-80
2021/06/13 07:51:48;;;;;;;4.47;1.92;;;;;;;22.16;43.66;99944.63;5093294;28;20044;-80
2021/06/13 07:54:15;;;;;;;5.18;2.10;;;;;;;21.89;44.10;99956.19;5093600;28;20109;-80
2021/06/13 07:56:43;;;;;;;7.63;2.20;;;;;;;21.91;43.63;99953.19;5094183;28;20143;-80
2021/06/13 07:59:09;;;;;;;3.08;1.80;;;;;;;21.80;44.74;99954.00;5073445;28;20053;-80
2021/06/13 08:01:36;;;;;;;7.03;1.88;;;;;;;22.25;42.52;99953.38;5073656;28;20048;-81
2021/06/13 08:04:05;;;;;;;9.63;2.25;;;;;;;22.37;42.69;99951.50;5084614;28;20056;-80
2021/06/13 08:06:32;;;;;;;8.30;1.83;;;;;;;22.48;43.24;99960.88;5093962;28;20117;-79
2021/06/13 08:08:59;;;;;;;3.47;1.70;;;;;;;22.13;43.84;99961.72;5092839;28;20055;-81
2021/06/13 08:11:30;;;;;;;3.55;2.20;;;;;;;22.20;42.60;99956.88;5093880;28;20576;-81
2021/06/13 08:14:07;;;;;;;4.18;1.90;;;;;;;22.33;43.76;99953.06;5093257;28;20044;-80
2021/06/13 08:16:34;;;;;;;3.42;2.00;;;;;;;22.23;43.44;99953.63;5093693;28;20051;-80
2021/06/13 08:19:01;;;;;;;9.38;2.22;;;;;;;22.41;42.10;99965.69;5091754;28;20040;-80
2021/06/13 08:21:50;;;;;;;6.25;2.15;;;;;;;22.32;43.44;99967.16;5094062;28;20048;-80
2021/06/13 08:24:40;;;;;;;4.55;1.95;;;;;;;22.84;42.20;99961.63;5093715;28;20098;-80
2021/06/13 08:27:08;;;;;;;5.63;2.40;;;;;;;22.39;42.74;99963.16;5093562;28;20125;-80
2021/06/13 08:29:36;;;;;;;8.93;2.10;;;;;;;22.59;43.34;99959.97;5093380;28;20052;-80
2021/06/13 08:32:07;;;;;;;5.25;2.33;;;;;;;22.55;41.61;99949.63;5093480;28;20106;-81
2021/06/13 08:34:37;;;;;;;9.07;2.35;;;;;;;22.28;42.77;99958.44;5091562;28;20475;-80
2021/06/13 08:37:06;;;;;;;8.20;3.40;;;;;;;21.76;42.52;99927.91;5093195;28;20419;-80
2021/06/13 08:39:33;;;;;;;5.68;2.38;;;;;;;21.45;44.66;99947.31;5093503;28;20064;-80
2021/06/13 08:41:59;;;;;;;6.68;2.30;;;;;;;21.67;44.62;99944.03;5093361;28;20105;-80
2021/06/13 08:44:26;;;;;;;6.47;2.65;;;;;;;21.98;43.46;99933.66;5092314;28;20048;-80
2021/06/13 08:46:57;;;;;;;5.07;2.63;;;;;;;22.59;43.60;99934.22;5094391;28;20090;-81
2021/06/13 08:49:25;;;;;;;5.97;2.42;;;;;;;22.04;43.36;99946.53;5093040;28;20056;-80
2021/06/13 08:51:52;;;;;;;6.05;2.38;;;;;;;22.62;42.63;99950.34;5093469;28;20376;-80
2021/06/13 08:54:20;;;;;;;5.55;2.33;;;;;;;22.52;43.43;99955.66;5078870;28;20044;-79
2021/06/13 08:56:47;;;;;;;5.82;2.80;;;;;;;22.11;45.02;99947.28;5073130;28;20110;-81
2021/06/13 08:59:14;;;;;;;6.95;2.53;;;;;;;21.41;47.37;99951.66;5081624;28;20059;-80
2021/06/13 09:01:43;;;;;;;4.70;2.17;;;;;;;21.10;46.91;99953.59;5092797;28;20044;-80
2021/06/13 09:04:14;;;;;;;4.97;2.30;;;;;;;21.67;45.53;99946.78;5089727;28;20045;-80
2021/06/13 09:06:41;;;;;;;5.75;2.58;;;;;;;21.54;44.13;99951.47;5073193;28;20462;-80
2021/06/13 09:09:18;;;;;;;7.68;2.50;;;;;;;21.78;43.60;99947.88;5072255;28;20487;-80
2021/06/13 09:11:58;;;;;;;6.05;2.10;;;;;;;22.34;45.27;99935.38;5073144;28;20123;-80
2021/06/13 09:14:26;;;;;;;6.75;2.08;;;;;;;22.60;42.80;99927.59;5077886;28;20150;-80
2021/06/13 09:16:56;;;;;;;4.32;2.10;;;;;;;22.42;42.25;99950.75;5092786;28;20056;-81
2021/06/13 09:19:24;;;;;;;4.45;2.20;;;;;;;22.62;42.50;99930.94;5092828;28;20491;-80
2021/06/13 09:21:53;;;;;;;10.60;2.60;;;;;;;22.91;41.45;99942.91;5093041;28;20165;-81
2021/06/13 09:24:21;;;;;;;5.78;2.15;;;;;;;22.87;40.82;99935.31;5092644;28;20056;-80
2021/06/13 09:26:49;;;;;;;3.58;2.13;;;;;;;23.26;41.03;99944.69;5093033;28;20052;-81
2021/06/13 09:29:16;;;;;;;6.03;1.98;;;;;;;22.96;41.77;99943.00;5092867;28;20055;-81
2021/06/13 09:31:43;;;;;;;7.13;2.58;;;;;;;22.47;42.06;99948.09;5092212;28;20052;-80
2021/06/13 09:34:15;;;;;;;6.72;2.30;;;;;;;22.38;41.83;99946.78;5092018;28;20094;-80
2021/06/13 09:36:44;;;;;;;4.20;2.17;;;;;;;22.54;41.81;99957.13;5085394;28;20568;-81
2021/06/13 09:39:12;;;;;;;7.97;2.60;;;;;;;22.38;42.60;99957.88;5092606;28;20052;-80
2021/06/13 09:41:41;;;;;;;4.35;2.03;;;;;;;22.57;40.66;99955.78;5090883;28;20484;-81
2021/06/13 09:44:10;;;;;;;5.90;1.73;;;;;;;23.11;40.49;99948.03;5092654;28;20044;-81
2021/06/13 09:46:39;;;;;;;7.28;1.90;;;;;;;23.79;41.15;99950.03;5092623;28;20044;-81
2021/06/13 09:49:08;;;;;;;4.43;2.20;;;;;;;23.76;39.75;99954.13;5091992;28;20048;-80
2021/06/13 09:51:39;;;;;;;4.97;2.08;;;;;;;23.18;41.17;99955.34;5087924;28;20052;-79
2021/06/13 09:54:12;;;;;;;3.38;1.55;;;;;;;23.13;39.65;99962.47;5096211;28;20131;-80
2021/06/13 09:56:40;;;;;;;4.75;1.90;;;;;;;23.14;39.65;99964.16;5095805;28;20488;-80
2021/06/13 09:59:10;;;;;;;10.43;2.17;;;;;;;23.25;38.48;99964.34;5096309;28;20102;-81
2021/06/13 10:01:42;;;;;;;5.15;2.35;;;;;;;23.25;39.62;99965.19;5096270;28;20105;-81
2021/06/13 10:04:26;;;;;;;4.07;1.98;;;;;;;22.95;41.55;99960.72;5096210;28;20518;-81
2021/06/13 10:06:54;;;;;;;5.25;2.47;;;;;;;22.71;41.64;99971.03;5095945;28;20044;-80
2021/06/13 10:09:24;;;;;;;5.22;1.88;;;;;;;22.95;40.57;99971.78;5095977;28;20105;-80
2021/06/13 10:12:03;;;;;;;6.03;2.20;;;;;;;23.10;38.59;99970.47;5075915;28;20049;-81
2021/06/13 10:14:30;;;;;;;1.92;1.58;;;;;;;23.26;40.51;99960.47;5074635;28;20094;-80
2021/06/13 10:16:56;;;;;;;3.25;1.92;;;;;;;23.32;39.65;99959.50;5091615;28;20051;-80
2021/06/13 10:19:25;;;;;;;7.07;1.60;;;;;;;22.99;40.19;99969.41;5096390;28;20100;-81
2021/06/13 10:21:53;;;;;;;4.32;1.67;;;;;;;23.26;40.79;99966.88;5078312;28;20071;-81
2021/06/13 10:24:24;;;;;;;3.80;2.33;;;;;;;23.58;39.36;99969.09;5075371;28;20048;-81
2021/06/13 10:26:53;;;;;;;4.28;1.88;;;;;;;23.32;38.27;99971.44;5087112;28;20484;-80
2021/06/13 10:29:21;;;;;;;3.65;2.20;;;;;;;23.49;37.17;99965.06;5096006;28;20092;-81
2021/06/13 10:31:50;;;;;;;5.80;2.15;;;;;;;23.23;37.47;99963.75;5091021;28;20064;-81
2021/06/13 10:34:18;;;;;;;4.75;1.65;;;;;;;23.19;37.91;99959.81;5095639;28;20097;-81
2021/06/13 10:36:45;;;;;;;3.42;1.70;;;;;;;23.48;37.81;99964.19;5084231;28;20099;-81
2021/06/13 10:39:14;;;;;;;4.57;1.88;;;;;;;23.56;37.27;99953.78;5075285;28;20558;-81
2021/06/13 10:41:46;;;;;;;3.70;1.55;;;;;;;23.43;38.05;99932.78;5090350;28;20411;-80
2021/06/13 10:44:17;;;;;;;10.30;2.65;;;;;;;23.15;37.14;99940.03;5095358;28;20083;-80
2021/06/13 10:46:46;;;;;;;3.72;1.75;;;;;;;23.57;37.92;99947.97;5080047;28;20533;-80
2021/06/13 10:49:31;;;;;;;3.55;1.70;;;;;;;23.39;37.17;99939.91;5096174;28;20052;-80
2021/06/13 10:52:06;;;;;;;3.22;1.55;;;;;;;23.50;37.54;99947.31;5115774;28;20088;-79
2021/06/13 10:54:35;;;;;;;6.85;2.10;;;;;;;23.14;37.76;99936.44;5088588;28;20124;-79
2021/06/13 10:57:37;;;;;;;5.25;1.92;;;;;;;23.43;36.65;99941.09;5087072;28;20056;-80
2021/06/13 11:00:30;;;;;;;4.90;1.75;;;;;;;23.66;38.06;99940.91;5093019;28;20142;-81
2021/06/13 11:02:59;;;;;;;7.63;2.05;;;;;;;23.50;37.46;99939.84;5074182;28;20045;-80
2021/06/13 11:05:38;;;;;;;5.43;1.80;;;;;;;23.16;36.68;99930.63;5074228;28;20084;-80
2021/06/13 11:08:05;;;;;;;8.05;2.03;;;;;;;23.32;36.11;99926.22;5090163;28;20071;-80
2021/06/13 11:10:35;;;;;;;2.97;1.65;;;;;;;23.39;35.24;99940.75;5088007;28;20054;-79
2021/06/13 11:13:05;;;;;;;;;;;;;;;23.28;35.58;99931.41;5079391;28;20487;-80
2021/06/13 11:15:57;;;;;;;4.22;1.42;;;;;;;23.47;36.32;99929.25;5094672;28;19924;-81
2021/06/13 11:18:29;;;;;;;3.47;1.40;;;;;;;23.75;35.78;99926.63;5094693;28;20506;-79
2021/06/13 11:21:09;;;;;;;6.85;2.80;;;;;;;23.89;35.63;99914.09;5094873;28;20507;-78
2021/06/13 11:23:43;;;;;;;;;;;;;;;24.04;34.21;99919.03;5090636;28;20052;-80
2021/06/13 11:26:40;;;;;;;3.33;1.65;;;;;;;23.88;35.19;99915.22;5074586;28;20011;-80
2021/06/13 11:29:10;;;;;;;3.67;1.58;;;;;;;24.23;35.52;99925.13;5082557;28;20048;-80
2021/06/13 11:31:47;;;;;;;2.72;1.50;;;;;;;24.37;33.66;99917.25;5074026;28;20504;-80
2021/06/13 11:34:25;;;;;;;5.00;1.63;;;;;;;23.99;34.67;99913.41;5082262;28;20506;-80
2021/06/13 11:36:52;;;;;;;4.20;1.45;;;;;;;23.98;34.28;99908.94;5092290;28;20180;-80
2021/06/13 11:39:24;;;;;;;5.00;1.50;;;;;;;23.89;32.93;99910.47;5094442;28;20052;-81
2021/06/13 11:41:52;;;;;;;4.93;1.90;;;;;;;23.84;29.90;99908.44;5088966;28;20401;-80
2021/06/13 11:44:43;;;;;;;4.10;1.38;;;;;;;24.07;33.04;99910.19;5076130;28;20499;-81